createdAt,value
2022-12-09T00:07:20.229Z,2.40
2022-12-09T00:17:08.872Z,2.70
2022-12-09T00:19:35.880Z,2.40
2022-12-09T00:24:30.219Z,2.60
2022-12-09T00:26:57.597Z,2.60
2022-12-09T00:29:24.543Z,2.60
2022-12-09T00:39:13.882Z,2.80
2022-12-09T00:41:40.792Z,2.80
2022-12-09T00:46:35.396Z,2.60
2022-12-09T00:49:04.528Z,2.70
2022-12-09T00:51:31.639Z,2.60
2022-12-09T00:53:58.624Z,2.90
2022-12-09T00:56:28.501Z,2.80
2022-12-09T00:58:57.412Z,2.90
2022-12-09T01:01:24.679Z,2.60
2022-12-09T01:06:22.082Z,2.90
2022-12-09T01:11:19.413Z,3.10
2022-12-09T01:13:47.120Z,2.90
2022-12-09T01:16:24.857Z,2.60
2022-12-09T01:18:54.098Z,2.80
2022-12-09T01:21:21.294Z,2.90
2022-12-09T01:23:48.172Z,2.90
2022-12-09T01:31:12.646Z,2.80
2022-12-09T01:33:40.841Z,2.90
2022-12-09T01:36:10.735Z,3.00
2022-12-09T01:41:05.374Z,2.90
2022-12-09T01:46:00.012Z,2.70
2022-12-09T01:48:37.586Z,3.10
2022-12-09T01:51:19.641Z,2.70
2022-12-09T01:53:50.164Z,3.00
2022-12-09T01:56:22.431Z,2.80
2022-12-09T02:01:18.122Z,2.80
2022-12-09T02:03:45.777Z,2.70
2022-12-09T02:08:41.063Z,2.80
2022-12-09T02:11:14.274Z,3.00
2022-12-09T02:13:41.359Z,2.80
2022-12-09T02:16:14.249Z,2.70
2022-12-09T02:18:54.734Z,2.70
2022-12-09T02:21:36.952Z,2.90
2022-12-09T02:24:09.160Z,2.80
2022-12-09T02:27:14.656Z,3.30
2022-12-09T02:29:47.228Z,2.90
2022-12-09T02:32:56.293Z,2.50
2022-12-09T02:35:32.185Z,2.60
2022-12-09T02:38:12.398Z,2.70
2022-12-09T02:40:57.378Z,2.50
2022-12-09T02:43:29.073Z,2.50
2022-12-09T02:45:58.560Z,2.60
2022-12-09T02:48:33.260Z,2.60
2022-12-09T02:51:03.868Z,2.80
2022-12-09T02:53:32.279Z,2.70
2022-12-09T02:55:59.949Z,2.30
2022-12-09T03:00:56.719Z,2.90
2022-12-09T03:03:25.227Z,2.90
2022-12-09T03:06:07.206Z,3.10
2022-12-09T03:08:49.064Z,2.90
2022-12-09T03:11:18.752Z,3.00
2022-12-09T03:13:57.179Z,2.80
2022-12-09T03:16:35.742Z,2.90
2022-12-09T03:19:05.566Z,2.90
2022-12-09T03:21:38.280Z,2.90
2022-12-09T03:24:08.608Z,3.10
2022-12-09T03:26:38.912Z,3.40
2022-12-09T03:29:17.898Z,3.10
2022-12-09T03:31:47.218Z,3.10
2022-12-09T03:34:17.646Z,2.70
2022-12-09T03:36:48.135Z,3.00
2022-12-09T03:39:19.111Z,3.70
2022-12-09T03:41:52.309Z,3.00
2022-12-09T03:44:47.607Z,3.00
2022-12-09T03:47:14.787Z,2.70
2022-12-09T03:52:28.860Z,3.20
2022-12-09T03:55:01.086Z,3.00
2022-12-09T03:57:29.201Z,3.10
2022-12-09T04:00:02.177Z,3.10
2022-12-09T04:07:24.949Z,2.80
2022-12-09T04:22:09.576Z,3.00
2022-12-09T04:24:36.901Z,3.00
2022-12-09T04:27:04.218Z,2.80
2022-12-09T04:34:25.908Z,2.50
2022-12-09T04:36:52.860Z,2.50
2022-12-09T04:39:19.831Z,2.60
2022-12-09T04:49:09.040Z,3.00
2022-12-09T04:54:11.156Z,2.70
2022-12-09T04:56:38.251Z,3.00
2022-12-09T04:59:06.320Z,3.00
2022-12-09T05:11:25.846Z,3.00
2022-12-09T05:13:56.654Z,2.80
2022-12-09T05:16:24.102Z,2.80
2022-12-09T05:21:20.807Z,5.60
2022-12-09T05:23:49.507Z,2.70
2022-12-09T05:26:19.574Z,2.60
2022-12-09T05:28:47.525Z,2.60
2022-12-09T05:31:18.051Z,2.80
2022-12-09T05:33:46.875Z,2.80
2022-12-09T05:36:16.283Z,3.30
2022-12-09T05:38:43.799Z,2.60
2022-12-09T05:46:07.045Z,2.70
2022-12-09T05:51:08.029Z,2.60
2022-12-09T05:53:35.338Z,2.70
2022-12-09T05:58:30.296Z,2.80
2022-12-09T06:01:04.928Z,2.60
2022-12-09T06:03:32.247Z,2.60
2022-12-09T06:05:59.875Z,2.60
2022-12-09T06:08:28.984Z,2.80
2022-12-09T06:10:56.045Z,2.90
2022-12-09T06:13:23.536Z,2.90
2022-12-09T06:15:50.535Z,2.80
2022-12-09T06:18:18.001Z,2.80
2022-12-09T06:20:45.032Z,2.60
2022-12-09T06:23:12.029Z,2.60
2022-12-09T06:25:45.220Z,2.70
2022-12-09T06:28:13.076Z,2.70
2022-12-09T06:30:40.124Z,2.70
2022-12-09T06:33:23.126Z,2.60
2022-12-09T06:35:54.954Z,2.60
2022-12-09T06:38:22.022Z,2.70
2022-12-09T06:40:49.221Z,2.80
2022-12-09T06:43:16.352Z,2.30
2022-12-09T06:45:43.476Z,2.80
2022-12-09T06:48:10.871Z,2.70
2022-12-09T06:50:38.621Z,2.90
2022-12-09T06:53:05.609Z,2.90
2022-12-09T06:55:32.504Z,2.90
2022-12-09T06:57:59.977Z,2.90
2022-12-09T07:00:27.045Z,3.00
2022-12-09T07:02:54.775Z,2.90
2022-12-09T07:05:23.206Z,2.80
2022-12-09T07:07:52.177Z,2.90
2022-12-09T07:10:20.687Z,3.00
2022-12-09T07:12:47.740Z,2.90
2022-12-09T07:15:15.252Z,2.80
2022-12-09T07:17:42.492Z,2.90
2022-12-09T07:20:10.318Z,2.90
2022-12-09T07:22:37.827Z,2.90
2022-12-09T07:25:05.954Z,3.00
2022-12-09T07:27:33.328Z,3.10
2022-12-09T07:30:00.494Z,3.00
2022-12-09T07:32:28.142Z,3.00
2022-12-09T07:34:55.683Z,3.00
2022-12-09T07:37:22.631Z,3.10
2022-12-09T07:39:49.655Z,3.00
2022-12-09T07:42:16.820Z,5.10
2022-12-09T07:44:43.788Z,3.00
2022-12-09T07:47:10.950Z,3.00
2022-12-09T07:49:38.250Z,3.00
2022-12-09T07:52:05.691Z,3.00
2022-12-09T07:54:32.717Z,3.00
2022-12-09T07:56:59.784Z,3.00
2022-12-09T07:59:27.131Z,2.90
2022-12-09T08:01:54.264Z,3.00
2022-12-09T08:04:21.784Z,2.90
2022-12-09T08:06:49.277Z,3.00
2022-12-09T08:09:16.683Z,2.90
2022-12-09T08:11:44.324Z,3.10
2022-12-09T08:14:13.046Z,3.00
2022-12-09T08:16:42.008Z,3.10
2022-12-09T08:19:10.200Z,3.20
2022-12-09T08:21:37.748Z,3.20
2022-12-09T08:24:07.785Z,3.20
2022-12-09T08:26:37.518Z,3.20
2022-12-09T08:29:08.166Z,3.20
2022-12-09T08:31:40.590Z,3.10
2022-12-09T08:34:08.894Z,3.20
2022-12-09T08:36:37.138Z,3.20
2022-12-09T08:39:05.324Z,3.20
2022-12-09T08:41:39.082Z,3.20
2022-12-09T08:44:12.161Z,3.10
2022-12-09T08:46:43.597Z,3.30
2022-12-09T08:49:11.350Z,3.30
2022-12-09T08:51:39.671Z,3.30
2022-12-09T08:54:07.052Z,3.30
2022-12-09T08:56:34.467Z,3.20
2022-12-09T09:01:35.914Z,3.40
2022-12-09T09:04:06.453Z,3.50
2022-12-09T09:06:34.217Z,3.40
2022-12-09T09:09:01.953Z,3.50
2022-12-09T09:13:57.035Z,3.60
2022-12-09T09:16:25.855Z,3.80
2022-12-09T09:18:53.588Z,3.80
2022-12-09T09:21:24.175Z,3.70
2022-12-09T09:23:51.936Z,4.20
2022-12-09T09:26:22.056Z,4.50
2022-12-09T09:28:50.295Z,4.90
2022-12-09T09:31:20.402Z,5.70
2022-12-09T09:33:54.912Z,6.60
2022-12-09T09:36:24.907Z,7.50
2022-12-09T09:38:54.140Z,8.40
2022-12-09T09:41:38.020Z,8.00
2022-12-09T09:44:32.423Z,7.80
2022-12-09T09:47:01.994Z,8.00
2022-12-09T09:49:53.394Z,9.60
2022-12-09T09:52:23.494Z,9.30
2022-12-09T09:54:51.971Z,9.40
2022-12-09T09:57:24.906Z,10.00
2022-12-09T10:00:08.396Z,10.80
2022-12-09T10:03:15.314Z,10.40
2022-12-09T10:05:58.680Z,10.10
2022-12-09T10:08:32.916Z,9.10
2022-12-09T10:11:11.912Z,9.70
2022-12-09T10:13:48.405Z,11.00
2022-12-09T10:16:23.998Z,10.30
2022-12-09T10:19:19.031Z,9.90
2022-12-09T10:21:48.877Z,9.40
2022-12-09T10:24:39.203Z,10.10
2022-12-09T10:27:16.596Z,10.10
2022-12-09T10:30:18.569Z,9.70
2022-12-09T10:32:46.649Z,9.00
2022-12-09T10:35:25.762Z,7.60
2022-12-09T10:37:55.632Z,7.50
2022-12-09T10:40:30.306Z,7.20
2022-12-09T10:43:18.342Z,5.90
2022-12-09T10:48:49.421Z,5.40
2022-12-09T10:51:22.078Z,5.30
2022-12-09T10:54:21.779Z,5.70
2022-12-09T10:57:07.282Z,6.80
2022-12-09T10:59:35.389Z,5.60
2022-12-09T11:02:10.159Z,6.10
2022-12-09T11:04:42.223Z,5.60
2022-12-09T11:07:18.278Z,5.40
2022-12-09T11:09:56.480Z,5.80
2022-12-09T11:12:38.570Z,6.10
2022-12-09T11:15:32.494Z,6.60
2022-12-09T11:18:16.736Z,6.80
2022-12-09T11:20:56.072Z,7.20
2022-12-09T11:23:23.120Z,6.90
2022-12-09T11:26:00.665Z,7.30
2022-12-09T11:28:36.851Z,8.40
2022-12-09T11:33:57.242Z,8.70
2022-12-09T11:36:36.850Z,9.10
2022-12-09T11:39:16.308Z,8.50
2022-12-09T11:42:12.956Z,8.90
2022-12-09T11:45:16.217Z,9.10
2022-12-09T11:50:37.448Z,9.70
2022-12-09T11:53:13.271Z,10.40
2022-12-09T11:56:05.568Z,10.80
2022-12-09T11:58:49.499Z,11.30
2022-12-09T12:01:27.666Z,12.40
2022-12-09T12:04:01.552Z,13.50
2022-12-09T12:06:48.315Z,12.20
2022-12-09T12:09:21.525Z,12.00
2022-12-09T12:11:52.916Z,11.10
2022-12-09T12:14:25.766Z,12.10
2022-12-09T12:17:17.268Z,11.20
2022-12-09T12:19:49.356Z,11.80
2022-12-09T12:22:22.263Z,12.30
2022-12-09T12:25:17.690Z,12.30
2022-12-09T12:28:07.991Z,10.80
2022-12-09T12:30:56.010Z,10.90
2022-12-09T12:36:28.711Z,10.30
2022-12-09T12:39:20.923Z,9.70
2022-12-09T12:41:57.656Z,9.50
2022-12-09T12:45:14.037Z,10.00
2022-12-09T12:47:47.027Z,10.00
2022-12-09T12:50:43.912Z,9.30
2022-12-09T12:53:20.981Z,9.20
2022-12-09T12:55:50.178Z,8.80
2022-12-09T12:58:41.263Z,8.80
2022-12-09T13:01:31.328Z,8.60
2022-12-09T13:04:13.977Z,9.70
2022-12-09T13:06:49.443Z,10.30
2022-12-09T13:09:51.169Z,10.30
2022-12-09T13:12:55.528Z,9.60
2022-12-09T13:15:39.003Z,9.50
2022-12-09T13:18:24.791Z,9.20
2022-12-09T13:20:59.868Z,8.70
2022-12-09T13:23:40.820Z,8.70
2022-12-09T13:26:35.393Z,8.70
2022-12-09T13:29:02.229Z,8.60
2022-12-09T13:31:31.188Z,7.40
2022-12-09T13:34:22.668Z,7.00
2022-12-09T13:36:49.780Z,6.50
2022-12-09T13:39:42.688Z,6.10
2022-12-09T13:42:47.431Z,5.90
2022-12-09T13:45:25.429Z,4.80
2022-12-09T13:47:53.431Z,5.70
2022-12-09T13:50:43.519Z,5.50
2022-12-09T13:53:19.401Z,5.70
2022-12-09T13:55:54.221Z,5.60
2022-12-09T13:58:53.471Z,5.70
2022-12-09T14:01:43.819Z,5.70
2022-12-09T14:04:16.022Z,6.00
2022-12-09T14:06:45.763Z,5.70
2022-12-09T14:09:37.183Z,5.60
2022-12-09T14:12:11.736Z,5.70
2022-12-09T14:14:48.672Z,5.50
2022-12-09T14:17:41.256Z,5.60
2022-12-09T14:20:29.968Z,5.40
2022-12-09T14:23:02.515Z,5.40
2022-12-09T14:25:29.369Z,5.50
2022-12-09T14:28:25.411Z,5.40
2022-12-09T14:30:59.757Z,5.50
2022-12-09T14:33:34.320Z,5.50
2022-12-09T14:36:27.719Z,5.40
2022-12-09T14:39:24.957Z,5.40
2022-12-09T14:42:01.469Z,5.50
2022-12-09T14:44:43.906Z,5.40
2022-12-09T14:47:27.009Z,5.40
2022-12-09T14:50:03.750Z,5.30
2022-12-09T14:52:32.974Z,5.30
2022-12-09T14:55:06.697Z,5.20
2022-12-09T14:57:41.634Z,5.20
2022-12-09T15:00:35.736Z,5.00
2022-12-09T15:06:00.525Z,4.80
2022-12-09T15:08:28.453Z,4.70
2022-12-09T15:10:55.442Z,4.60
2022-12-09T15:13:24.470Z,4.60
2022-12-09T15:15:52.443Z,4.50
2022-12-09T15:18:23.016Z,4.30
2022-12-09T15:20:57.811Z,4.50
2022-12-09T15:23:30.639Z,4.50
2022-12-09T15:26:04.333Z,4.50
2022-12-09T15:28:33.715Z,4.30
2022-12-09T15:31:15.805Z,4.20
2022-12-09T15:33:45.750Z,4.30
2022-12-09T15:36:21.159Z,4.40
2022-12-09T15:39:07.979Z,4.30
2022-12-09T15:42:02.801Z,4.40
2022-12-09T15:44:56.156Z,4.20
2022-12-09T15:47:57.450Z,4.20
2022-12-09T15:50:28.816Z,4.30
2022-12-09T15:53:06.256Z,4.00
2022-12-09T15:55:50.560Z,4.10
2022-12-09T15:58:24.023Z,4.20
2022-12-09T16:00:53.877Z,4.30
2022-12-09T16:03:30.269Z,4.20
2022-12-09T16:06:01.174Z,4.30
2022-12-09T16:08:35.218Z,4.20
2022-12-09T16:11:02.570Z,3.90
2022-12-09T16:13:29.897Z,3.90
2022-12-09T16:15:59.067Z,4.10
2022-12-09T16:18:28.116Z,4.10
2022-12-09T16:21:14.897Z,4.10
2022-12-09T16:23:44.089Z,4.20
2022-12-09T16:26:30.818Z,4.10
2022-12-09T16:29:01.485Z,4.00
2022-12-09T16:31:29.072Z,3.80
2022-12-09T16:33:56.565Z,3.70
2022-12-09T16:36:31.742Z,3.50
2022-12-09T16:39:07.272Z,3.30
2022-12-09T16:41:52.219Z,3.30
2022-12-09T16:44:21.684Z,3.30
2022-12-09T16:46:48.736Z,3.30
2022-12-09T16:49:15.705Z,3.20
2022-12-09T16:51:42.642Z,3.10
2022-12-09T16:54:20.283Z,3.30
2022-12-09T16:56:48.598Z,3.50
2022-12-09T16:59:15.488Z,3.50
2022-12-09T17:01:42.925Z,3.50
2022-12-09T17:04:17.401Z,3.50
2022-12-09T17:06:44.456Z,3.70
2022-12-09T17:09:14.549Z,3.80
2022-12-09T17:11:46.994Z,3.70
2022-12-09T17:14:16.162Z,3.70
2022-12-09T17:16:43.081Z,3.50
2022-12-09T17:19:09.965Z,3.50
2022-12-09T17:21:36.866Z,3.40
2022-12-09T17:24:04.004Z,3.40
2022-12-09T17:26:30.931Z,3.40
2022-12-09T17:29:01.550Z,3.50
2022-12-09T17:31:29.203Z,3.50
2022-12-09T17:33:57.228Z,3.50
2022-12-09T17:36:24.210Z,3.50
2022-12-09T17:38:51.088Z,3.50
2022-12-09T17:41:23.445Z,3.40
2022-12-09T17:43:50.493Z,3.30
2022-12-09T17:46:17.670Z,3.30
2022-12-09T17:48:44.818Z,3.30
2022-12-09T17:51:18.004Z,3.30
2022-12-09T17:53:45.765Z,3.20
2022-12-09T17:56:18.880Z,3.20
2022-12-09T17:58:46.068Z,3.40
2022-12-09T18:01:15.925Z,3.50
2022-12-09T18:04:01.611Z,3.40
2022-12-09T18:06:34.811Z,3.40
2022-12-09T18:09:04.132Z,3.50
2022-12-09T18:11:31.403Z,3.50
2022-12-09T18:13:58.630Z,3.50
2022-12-09T18:16:26.192Z,3.40
2022-12-09T18:18:53.256Z,3.40
2022-12-09T18:21:20.266Z,3.30
2022-12-09T18:23:48.428Z,3.50
2022-12-09T18:26:17.883Z,3.50
2022-12-09T18:28:45.351Z,3.50
2022-12-09T18:31:19.252Z,3.60
2022-12-09T18:33:46.601Z,3.50
2022-12-09T18:36:15.960Z,3.50
2022-12-09T18:38:43.515Z,3.50
2022-12-09T18:41:16.224Z,4.70
2022-12-09T18:43:44.804Z,3.50
2022-12-09T18:46:21.370Z,3.50
2022-12-09T18:49:17.646Z,3.40
2022-12-09T18:51:45.850Z,3.30
2022-12-09T18:54:18.206Z,3.30
2022-12-09T18:56:45.535Z,3.30
2022-12-09T18:59:12.444Z,3.30
2022-12-09T19:01:45.375Z,3.30
2022-12-09T19:04:24.615Z,3.40
2022-12-09T19:06:54.017Z,3.30
2022-12-09T19:09:23.450Z,3.10
2022-12-09T19:11:52.282Z,3.10
2022-12-09T19:14:21.343Z,3.20
2022-12-09T19:16:49.443Z,3.20
2022-12-09T19:19:22.516Z,3.10
2022-12-09T19:21:49.416Z,3.10
2022-12-09T19:24:18.938Z,3.10
2022-12-09T19:26:46.488Z,3.00
2022-12-09T19:29:14.283Z,3.10
2022-12-09T19:31:44.264Z,3.00
2022-12-09T19:34:13.346Z,3.00
2022-12-09T19:36:40.360Z,2.90
2022-12-09T19:39:08.637Z,2.80
2022-12-09T19:41:36.965Z,2.90
2022-12-09T19:44:04.969Z,2.90
2022-12-09T19:46:33.141Z,2.80
2022-12-09T19:49:00.498Z,2.80
2022-12-09T19:51:28.077Z,2.70
2022-12-09T19:53:56.864Z,2.80
2022-12-09T19:56:24.508Z,2.70
2022-12-09T19:58:52.380Z,2.80
2022-12-09T20:01:28.088Z,2.80
2022-12-09T20:04:13.563Z,2.90
2022-12-09T20:06:48.157Z,2.80
2022-12-09T20:09:19.328Z,2.70
2022-12-09T20:11:46.205Z,2.70
2022-12-09T20:14:14.081Z,2.60
2022-12-09T20:16:41.403Z,2.70
2022-12-09T20:19:08.751Z,2.60
2022-12-09T20:21:37.755Z,2.60
2022-12-09T20:24:05.957Z,2.50
2022-12-09T20:26:34.592Z,2.60
2022-12-09T20:29:04.399Z,2.50
2022-12-09T20:31:33.401Z,2.40
2022-12-09T20:34:04.331Z,2.20
2022-12-09T20:36:35.253Z,2.20
2022-12-09T20:39:05.770Z,2.30
2022-12-09T20:41:34.858Z,2.30
2022-12-09T20:44:01.782Z,2.20
2022-12-09T20:46:31.031Z,2.20
2022-12-09T20:48:59.336Z,2.20
2022-12-09T20:51:30.611Z,2.20
2022-12-09T20:53:58.190Z,2.30
2022-12-09T20:56:26.342Z,2.20
2022-12-09T20:58:54.058Z,1.90
2022-12-09T21:01:23.918Z,2.00
2022-12-09T21:03:52.643Z,2.00
2022-12-09T21:06:22.534Z,1.90
2022-12-09T21:08:49.704Z,1.80
2022-12-09T21:11:19.873Z,1.80
2022-12-09T21:13:49.666Z,1.80
2022-12-09T21:16:20.512Z,1.70
2022-12-09T21:18:49.360Z,1.80
2022-12-09T21:21:17.748Z,1.90
2022-12-09T21:23:44.926Z,1.80
2022-12-09T21:26:15.620Z,1.70
2022-12-09T21:28:43.770Z,2.30
2022-12-09T21:31:16.562Z,1.70
2022-12-09T21:33:44.860Z,1.80
2022-12-09T21:36:17.701Z,1.80
2022-12-09T21:38:44.789Z,1.60
2022-12-09T21:41:15.191Z,1.70
2022-12-09T21:43:43.069Z,1.80
2022-12-09T21:46:17.818Z,1.80
2022-12-09T21:48:50.563Z,1.80
2022-12-09T21:51:19.884Z,1.80
2022-12-09T21:53:47.392Z,1.60
2022-12-09T21:56:25.884Z,1.50
2022-12-09T21:58:55.259Z,1.60
2022-12-09T22:01:26.199Z,1.60
2022-12-09T22:03:53.657Z,1.50
2022-12-09T22:06:21.222Z,1.50
2022-12-09T22:08:48.232Z,1.60
2022-12-09T22:11:18.176Z,1.50
2022-12-09T22:13:45.442Z,1.50
2022-12-09T22:16:18.673Z,1.50
2022-12-09T22:18:46.250Z,1.50
2022-12-09T22:21:26.296Z,1.40
2022-12-09T22:23:55.144Z,1.40
2022-12-09T22:26:22.935Z,1.40
2022-12-09T22:28:50.425Z,1.30
2022-12-09T22:31:22.893Z,1.20
2022-12-09T22:33:51.536Z,1.30
2022-12-09T22:36:19.990Z,1.30
2022-12-09T22:38:47.721Z,1.30
2022-12-09T22:41:21.332Z,1.20
2022-12-09T22:43:49.139Z,1.10
2022-12-09T22:46:20.129Z,1.10
2022-12-09T22:48:47.823Z,1.30
2022-12-09T22:51:20.862Z,1.20
2022-12-09T22:53:51.127Z,1.20
2022-12-09T22:56:18.830Z,1.30
2022-12-09T22:58:46.243Z,1.30
2022-12-09T23:01:26.866Z,1.30
2022-12-09T23:03:58.013Z,1.20
2022-12-09T23:06:26.816Z,1.10
2022-12-09T23:08:54.053Z,1.10
2022-12-09T23:11:23.316Z,1.30
2022-12-09T23:13:50.996Z,1.20
2022-12-09T23:16:20.819Z,1.20
2022-12-09T23:18:48.204Z,1.40
2022-12-09T23:21:24.260Z,1.20
2022-12-09T23:23:56.785Z,1.20
2022-12-09T23:26:28.152Z,1.10
2022-12-09T23:28:58.131Z,1.10
2022-12-09T23:31:27.881Z,1.10
2022-12-09T23:33:55.421Z,1.10
2022-12-09T23:36:25.674Z,1.00
2022-12-09T23:38:53.563Z,1.10
2022-12-09T23:41:22.435Z,1.10
2022-12-09T23:43:50.128Z,1.10
2022-12-09T23:46:19.763Z,1.00
2022-12-09T23:48:48.216Z,1.00
2022-12-09T23:51:27.898Z,1.00
2022-12-09T23:53:57.523Z,1.10
2022-12-09T23:56:26.300Z,1.10
2022-12-09T23:58:56.285Z,1.20
